Terminal Aerodrome Forecast
Issued by NWS Wilmington, NC

Home | Current Version | Previous Version | Text Only | Print | Product List | Glossary On
Versions: 1 2 3 4 5 6 7 8 9 10 11 12 13 14 15 16 17 18 19 20 21 22 23 24
000
FTUS42 KILM 230520
TAFFLO
TAF
KFLO 230520Z 2306/2406 14005KT 3SM TSRA OVC015CB
      TEMPO 2306/2309 OVC008CB
     FM230900 16006KT P6SM OVC010
      TEMPO 2309/2312 3/4SM SHRA OVC003
     FM231200 20006KT P6SM OVC008
     FM231300 21008KT P6SM OVC010
      TEMPO 2313/2315 1SM -TSRA OVC005CB
     FM231500 22012KT 4SM -SHRA VCTS OVC025CB
     FM231700 22011KT 6SM -SHRA VCTS OVC035CB
     FM240100 23009KT P6SM OVC008 PROB30 2401/2402 4SM TSRA
      OVC005CB=

USA.gov is the U.S. government's official web portal to all federal, state and local government web resources and services.